createdAt,value
2022-10-28T00:01:39.231Z,18.55
2022-10-28T00:04:09.200Z,14.15
2022-10-28T00:06:39.546Z,13.07
2022-10-28T00:09:12.069Z,13.10
2022-10-28T00:11:41.977Z,13.65
2022-10-28T00:14:12.784Z,19.83
2022-10-28T00:16:42.081Z,17.33
2022-10-28T00:19:14.796Z,18.55
2022-10-28T00:21:45.887Z,22.10
2022-10-28T00:24:15.989Z,17.08
2022-10-28T00:26:46.983Z,29.77
2022-10-28T00:29:19.840Z,18.10
2022-10-28T00:31:49.775Z,21.60
2022-10-28T00:34:24.580Z,16.83
2022-10-28T00:36:53.828Z,35.55
2022-10-28T00:39:26.717Z,26.85
2022-10-28T00:42:04.698Z,26.60
2022-10-28T00:44:55.081Z,23.95
2022-10-28T00:47:46.374Z,24.42
2022-10-28T00:50:22.136Z,17.13
2022-10-28T00:53:07.669Z,18.10
2022-10-28T00:55:38.728Z,14.18
2022-10-28T00:58:11.468Z,13.20
2022-10-28T01:00:40.943Z,17.08
2022-10-28T01:03:10.967Z,18.60
2022-10-28T01:05:45.376Z,21.20
2022-10-28T01:08:14.999Z,27.70
2022-10-28T01:11:36.947Z,14.80
2022-10-28T01:14:15.113Z,15.27
2022-10-28T01:17:24.023Z,11.65
2022-10-28T01:20:28.152Z,14.93
2022-10-28T01:23:35.410Z,17.80
2022-10-28T01:26:46.919Z,11.90
2022-10-28T01:29:56.671Z,13.65
2022-10-28T01:32:43.642Z,10.43
2022-10-28T01:35:46.452Z,16.20
2022-10-28T01:38:42.684Z,24.60
2022-10-28T01:41:44.559Z,14.93
2022-10-28T01:44:39.427Z,10.80
2022-10-28T01:47:56.194Z,12.93
2022-10-28T01:50:44.500Z,11.65
2022-10-28T01:53:26.355Z,12.10
2022-10-28T01:56:06.717Z,11.07
2022-10-28T01:58:47.131Z,12.82
2022-10-28T02:01:17.874Z,14.57
2022-10-28T02:03:50.136Z,9.82
2022-10-28T02:06:25.146Z,19.27
2022-10-28T02:09:25.972Z,15.38
2022-10-28T02:12:33.243Z,10.50
2022-10-28T02:15:48.043Z,9.87
2022-10-28T02:19:04.602Z,17.73
2022-10-28T02:22:01.872Z,16.98
2022-10-28T02:24:46.489Z,13.98
2022-10-28T02:27:31.629Z,10.13
2022-10-28T02:30:18.699Z,11.38
2022-10-28T02:32:55.342Z,9.55
2022-10-28T02:36:01.946Z,11.20
2022-10-28T02:38:38.797Z,12.82
2022-10-28T02:41:39.737Z,8.35
2022-10-28T02:44:15.562Z,14.07
2022-10-28T02:46:51.440Z,22.65
2022-10-28T02:49:21.205Z,11.82
2022-10-28T02:52:04.282Z,18.48
2022-10-28T02:55:01.389Z,10.98
2022-10-28T02:57:49.109Z,6.35
2022-10-28T03:00:24.088Z,7.40
2022-10-28T03:02:53.782Z,8.10
2022-10-28T03:05:23.407Z,13.43
2022-10-28T03:07:52.896Z,21.27
2022-10-28T03:10:22.177Z,18.20
2022-10-28T03:12:51.271Z,11.23
2022-10-28T03:15:20.497Z,9.77
2022-10-28T03:17:49.615Z,8.45
2022-10-28T03:20:18.937Z,12.68
2022-10-28T03:22:48.935Z,8.98
2022-10-28T03:25:18.126Z,12.85
2022-10-28T03:27:47.383Z,18.10
2022-10-28T03:30:16.597Z,9.60
2022-10-28T03:32:46.238Z,8.30
2022-10-28T03:35:15.560Z,10.10
2022-10-28T03:37:45.930Z,11.60
2022-10-28T03:40:15.929Z,6.35
2022-10-28T03:42:45.406Z,9.52
2022-10-28T03:45:14.594Z,5.72
2022-10-28T03:47:44.445Z,8.82
2022-10-28T03:50:13.563Z,13.25
2022-10-28T03:52:45.490Z,6.47
2022-10-28T03:55:14.749Z,13.55
2022-10-28T03:57:43.927Z,10.82
2022-10-28T04:00:15.426Z,9.82
2022-10-28T04:02:45.424Z,12.82
2022-10-28T04:05:15.023Z,25.50
2022-10-28T04:07:44.167Z,11.15
2022-10-28T04:10:14.467Z,8.05
2022-10-28T04:12:43.624Z,21.80
2022-10-28T04:15:12.899Z,9.23
2022-10-28T04:17:42.101Z,6.40
2022-10-28T04:20:12.111Z,14.63
2022-10-28T04:22:41.255Z,6.28
2022-10-28T04:25:10.739Z,7.95
2022-10-28T04:27:39.904Z,7.57
2022-10-28T04:30:10.505Z,12.15
2022-10-28T04:32:39.861Z,11.85
2022-10-28T04:35:10.065Z,8.93
2022-10-28T04:37:39.979Z,6.57
2022-10-28T04:40:10.520Z,13.15
2022-10-28T04:42:39.768Z,12.32
2022-10-28T04:45:10.155Z,15.82
2022-10-28T04:47:39.343Z,15.48
2022-10-28T04:50:09.099Z,10.40
2022-10-28T04:52:38.464Z,10.32
2022-10-28T04:55:08.094Z,16.88
2022-10-28T04:57:37.201Z,15.60
2022-10-28T05:00:07.743Z,12.40
2022-10-28T05:02:36.972Z,16.13
2022-10-28T05:05:06.949Z,7.30
2022-10-28T05:07:36.753Z,9.50
2022-10-28T05:10:06.263Z,11.70
2022-10-28T05:12:35.436Z,8.52
2022-10-28T05:15:05.656Z,14.45
2022-10-28T05:17:34.884Z,9.10
2022-10-28T05:20:04.181Z,7.43
2022-10-28T05:22:33.334Z,3.85
2022-10-28T05:25:02.514Z,7.68
2022-10-28T05:27:32.062Z,7.93
2022-10-28T05:30:01.345Z,9.63
2022-10-28T05:32:30.485Z,13.73
2022-10-28T05:34:59.659Z,9.52
2022-10-28T05:37:28.974Z,5.03
2022-10-28T05:39:58.216Z,11.38
2022-10-28T05:42:27.509Z,8.43
2022-10-28T05:44:56.623Z,7.85
2022-10-28T05:47:25.863Z,9.75
2022-10-28T05:49:55.038Z,21.33
2022-10-28T05:52:24.227Z,9.65
2022-10-28T05:54:53.363Z,9.63
2022-10-28T05:57:22.615Z,13.50
2022-10-28T05:59:51.862Z,11.75
2022-10-28T06:02:21.085Z,10.48
2022-10-28T06:04:50.619Z,9.05
2022-10-28T06:07:19.677Z,13.68
2022-10-28T06:09:48.901Z,16.50
2022-10-28T06:12:17.096Z,10.05
2022-10-28T06:14:46.142Z,7.32
2022-10-28T06:17:15.329Z,9.05
2022-10-28T06:19:44.424Z,8.35
2022-10-28T06:22:13.769Z,7.57
2022-10-28T06:24:42.834Z,11.40
2022-10-28T06:27:12.338Z,9.25
2022-10-28T06:29:41.455Z,31.13
2022-10-28T06:32:11.000Z,11.57
2022-10-28T06:34:40.101Z,7.65
2022-10-28T06:37:10.250Z,9.82
2022-10-28T06:39:39.493Z,8.43
2022-10-28T06:42:09.063Z,7.43
2022-10-28T06:44:38.161Z,9.18
2022-10-28T06:47:08.828Z,9.73
2022-10-28T06:49:37.914Z,6.78
2022-10-28T06:52:06.997Z,6.68
2022-10-28T06:54:36.104Z,11.82
2022-10-28T06:57:05.288Z,8.88
2022-10-28T06:59:34.427Z,6.65
2022-10-28T07:02:03.627Z,11.27
2022-10-28T07:04:33.133Z,11.82
2022-10-28T07:07:02.904Z,6.50
2022-10-28T07:09:32.120Z,6.30
2022-10-28T07:12:04.797Z,5.43
2022-10-28T07:14:35.865Z,9.45
2022-10-28T07:17:05.219Z,5.90
2022-10-28T07:19:34.674Z,7.38
2022-10-28T07:22:03.966Z,6.60
2022-10-28T07:24:33.224Z,7.82
2022-10-28T07:27:02.442Z,8.55
2022-10-28T07:29:31.605Z,8.98
2022-10-28T07:32:00.988Z,7.15
2022-10-28T07:34:30.176Z,5.18
2022-10-28T07:36:59.563Z,9.50
2022-10-28T07:39:28.908Z,6.40
2022-10-28T07:41:58.218Z,12.30
2022-10-28T07:44:27.382Z,11.80
2022-10-28T07:46:58.181Z,5.90
2022-10-28T07:49:27.844Z,12.40
2022-10-28T07:51:57.190Z,4.43
2022-10-28T07:54:26.446Z,6.82
2022-10-28T07:56:55.809Z,8.35
2022-10-28T07:59:27.119Z,9.80
2022-10-28T08:01:56.851Z,5.78
2022-10-28T08:04:27.788Z,57.28
2022-10-28T08:06:56.843Z,6.30
2022-10-28T08:09:26.386Z,13.23
2022-10-28T08:11:58.353Z,9.98
2022-10-28T08:14:27.468Z,8.52
2022-10-28T08:16:56.644Z,11.70
2022-10-28T08:19:25.728Z,11.38
2022-10-28T08:21:54.848Z,7.35
2022-10-28T08:24:24.166Z,10.73
2022-10-28T08:26:53.471Z,8.30
2022-10-28T08:29:26.245Z,19.75
2022-10-28T08:31:58.901Z,5.53
2022-10-28T08:34:30.338Z,13.73
2022-10-28T08:36:59.769Z,13.88
2022-10-28T08:39:28.934Z,9.02
2022-10-28T08:42:09.622Z,7.18
2022-10-28T08:44:53.616Z,11.95
2022-10-28T08:47:59.130Z,8.57
2022-10-28T08:50:32.935Z,11.75
2022-10-28T08:53:25.037Z,10.50
2022-10-28T08:56:15.489Z,10.07
2022-10-28T08:58:47.577Z,12.65
2022-10-28T09:01:37.926Z,11.32
2022-10-28T09:04:38.637Z,10.70
2022-10-28T09:07:19.315Z,14.82
2022-10-28T09:09:51.107Z,8.93
2022-10-28T09:12:47.841Z,21.58
2022-10-28T09:15:32.034Z,10.02
2022-10-28T09:18:20.666Z,9.02
2022-10-28T09:21:04.208Z,8.90
2022-10-28T09:23:45.871Z,12.48
2022-10-28T09:26:15.039Z,10.93
2022-10-28T09:29:02.193Z,16.58
2022-10-28T09:31:51.224Z,16.90
2022-10-28T09:35:10.084Z,4.38
2022-10-28T09:37:51.124Z,7.88
2022-10-28T09:40:32.277Z,13.30
2022-10-28T09:43:07.344Z,10.80
2022-10-28T09:45:45.361Z,19.02
2022-10-28T09:51:53.578Z,15.07
2022-10-28T09:54:41.016Z,20.15
2022-10-28T09:57:12.581Z,12.27
2022-10-28T09:59:44.185Z,16.45
2022-10-28T10:02:34.342Z,14.77
2022-10-28T10:05:05.310Z,15.00
2022-10-28T10:07:52.736Z,16.30
2022-10-28T10:10:36.223Z,17.42
2022-10-28T10:13:09.298Z,19.60
2022-10-28T10:15:46.511Z,12.45
2022-10-28T10:18:25.785Z,21.83
2022-10-28T10:21:00.106Z,23.48
2022-10-28T10:26:18.686Z,12.43
2022-10-28T10:28:52.019Z,14.90
2022-10-28T10:31:30.733Z,15.55
2022-10-28T10:34:00.498Z,17.60
2022-10-28T10:36:32.330Z,18.60
2022-10-28T10:39:05.120Z,17.92
2022-10-28T10:41:46.140Z,23.17
2022-10-28T10:44:24.248Z,18.05
2022-10-28T10:49:37.584Z,41.85
2022-10-28T10:52:30.605Z,14.10
2022-10-28T10:55:32.643Z,16.23
2022-10-28T10:58:03.249Z,11.52
2022-10-28T11:00:48.442Z,13.10
2022-10-28T11:03:34.647Z,13.77
2022-10-28T11:06:23.001Z,22.33
2022-10-28T11:09:03.512Z,21.08
2022-10-28T11:11:42.524Z,21.23
2022-10-28T11:14:15.468Z,22.48
2022-10-28T11:19:46.425Z,21.77
2022-10-28T11:22:28.764Z,21.05
2022-10-28T11:25:38.098Z,20.65
2022-10-28T11:28:51.135Z,20.30
2022-10-28T11:31:38.079Z,20.52
2022-10-28T11:34:49.054Z,26.55
2022-10-28T11:37:36.479Z,29.95
2022-10-28T11:40:31.873Z,33.15
2022-10-28T11:43:54.509Z,32.58
2022-10-28T11:46:50.349Z,30.23
2022-10-28T11:50:15.056Z,32.72
2022-10-28T11:53:28.789Z,30.45
2022-10-28T11:56:15.854Z,25.40
2022-10-28T11:59:09.144Z,38.00
2022-10-28T12:02:02.825Z,34.30
2022-10-28T12:05:06.632Z,34.97
2022-10-28T12:08:15.768Z,26.52
2022-10-28T12:11:44.859Z,25.10
2022-10-28T12:14:49.211Z,24.80
2022-10-28T12:17:41.237Z,36.33
2022-10-28T12:20:54.931Z,29.98
2022-10-28T12:23:26.993Z,24.00
2022-10-28T12:26:00.270Z,28.77
2022-10-28T12:29:01.944Z,21.23
2022-10-28T12:31:46.994Z,25.35
2022-10-28T12:34:23.699Z,23.17
2022-10-28T12:37:11.522Z,21.15
2022-10-28T12:40:14.386Z,18.48
2022-10-28T12:43:15.667Z,17.42
2022-10-28T12:45:45.916Z,25.80
2022-10-28T12:48:33.485Z,23.60
2022-10-28T12:51:37.757Z,20.90
2022-10-28T12:54:33.430Z,15.43
2022-10-28T12:57:18.421Z,20.67
2022-10-28T13:00:24.790Z,18.67
2022-10-28T13:03:12.802Z,23.85
2022-10-28T13:05:57.192Z,19.52
2022-10-28T13:08:48.213Z,21.30
2022-10-28T13:11:23.588Z,26.90
2022-10-28T13:14:09.829Z,21.25
2022-10-28T13:17:12.391Z,25.85
2022-10-28T13:20:33.305Z,28.15
2022-10-28T13:23:25.384Z,25.83
2022-10-28T13:26:30.583Z,19.38
2022-10-28T13:29:05.656Z,26.27
2022-10-28T13:31:47.984Z,24.85
2022-10-28T13:34:21.282Z,23.67
2022-10-28T13:37:04.386Z,27.60
2022-10-28T13:39:33.600Z,19.73
2022-10-28T13:42:19.310Z,22.73
2022-10-28T13:45:03.463Z,27.67
2022-10-28T13:47:37.334Z,26.83
2022-10-28T13:50:09.371Z,18.85
2022-10-28T13:52:47.747Z,23.15
2022-10-28T13:55:29.262Z,33.05
2022-10-28T13:58:06.601Z,48.10
2022-10-28T14:00:38.983Z,33.65
2022-10-28T14:03:21.526Z,27.73
2022-10-28T14:05:54.048Z,21.23
2022-10-28T14:08:34.727Z,23.10
2022-10-28T14:11:31.375Z,30.58
2022-10-28T14:14:06.330Z,23.65
2022-10-28T14:16:45.429Z,30.70
2022-10-28T14:19:16.058Z,26.92
2022-10-28T14:22:10.052Z,28.85
2022-10-28T14:24:44.680Z,23.60
2022-10-28T14:27:45.566Z,20.83
2022-10-28T14:30:23.871Z,22.05
2022-10-28T14:35:48.262Z,23.13
2022-10-28T14:39:01.262Z,24.92
2022-10-28T14:41:53.050Z,23.95
2022-10-28T14:44:48.700Z,24.98
2022-10-28T14:47:40.970Z,20.90
2022-10-28T14:50:32.686Z,25.65
2022-10-28T14:53:07.379Z,25.23
2022-10-28T14:55:38.426Z,22.80
2022-10-28T14:58:29.177Z,29.70
2022-10-28T15:01:19.575Z,16.48
2022-10-28T15:04:00.543Z,18.90
2022-10-28T15:06:48.708Z,23.55
2022-10-28T15:09:39.074Z,29.30
2022-10-28T15:12:18.246Z,24.52
2022-10-28T15:14:56.818Z,28.52
2022-10-28T15:17:40.258Z,29.35
2022-10-28T15:20:32.873Z,19.35
2022-10-28T15:23:36.999Z,27.08
2022-10-28T15:26:17.998Z,21.85
2022-10-28T15:28:47.315Z,30.20
2022-10-28T15:31:18.834Z,23.50
2022-10-28T15:33:47.933Z,26.63
2022-10-28T15:36:38.107Z,18.98
2022-10-28T15:39:15.066Z,22.95
2022-10-28T15:41:53.464Z,31.15
2022-10-28T15:47:37.269Z,24.50
2022-10-28T15:50:27.136Z,23.33
2022-10-28T15:53:35.217Z,29.38
2022-10-28T15:59:01.219Z,28.20
2022-10-28T16:01:58.614Z,23.52
2022-10-28T16:04:27.787Z,28.80
2022-10-28T16:07:09.031Z,14.82
2022-10-28T16:09:47.289Z,24.40
2022-10-28T16:12:25.399Z,19.70
2022-10-28T16:15:02.795Z,21.42
2022-10-28T16:17:37.409Z,23.42
2022-10-28T16:20:21.862Z,17.08
2022-10-28T16:22:51.603Z,23.38
2022-10-28T16:25:23.697Z,18.20
2022-10-28T16:27:56.102Z,20.65
2022-10-28T16:30:26.571Z,21.63
2022-10-28T16:32:56.060Z,15.07
2022-10-28T16:35:25.848Z,16.88
2022-10-28T16:37:55.915Z,20.20
2022-10-28T16:40:49.733Z,19.23
2022-10-28T16:43:24.015Z,17.77
2022-10-28T16:48:28.658Z,17.02
2022-10-28T16:51:11.416Z,17.40
2022-10-28T16:53:40.493Z,18.88
2022-10-28T16:56:15.149Z,22.50
2022-10-28T16:58:45.564Z,13.98
2022-10-28T17:01:21.570Z,20.35
2022-10-28T17:03:51.043Z,15.18
2022-10-28T17:06:20.128Z,14.70
2022-10-28T17:09:02.380Z,14.00
2022-10-28T17:14:07.108Z,14.40
2022-10-28T17:16:39.299Z,14.07
2022-10-28T17:19:11.446Z,17.80
2022-10-28T17:21:42.592Z,14.52
2022-10-28T17:24:11.836Z,15.18
2022-10-28T17:26:41.023Z,16.40
2022-10-28T17:29:11.862Z,17.25
2022-10-28T17:31:41.040Z,16.27
2022-10-28T17:34:12.359Z,15.05
2022-10-28T17:36:41.497Z,19.05
2022-10-28T17:39:17.025Z,16.55
2022-10-28T17:41:47.831Z,18.30
2022-10-28T17:44:16.834Z,12.95
2022-10-28T17:46:45.916Z,15.70
2022-10-28T17:49:15.117Z,16.33
2022-10-28T17:51:45.029Z,17.23
2022-10-28T17:54:14.342Z,13.18
2022-10-28T17:56:43.581Z,10.77
2022-10-28T17:59:12.756Z,16.42
2022-10-28T18:01:41.911Z,16.05
2022-10-28T18:04:13.077Z,14.35
2022-10-28T18:06:42.806Z,14.90
2022-10-28T18:09:14.270Z,11.20
2022-10-28T18:11:43.344Z,27.30
2022-10-28T18:14:12.444Z,17.77
2022-10-28T18:16:41.801Z,15.13
2022-10-28T18:19:14.338Z,14.50
2022-10-28T18:21:45.747Z,13.07
2022-10-28T18:24:14.886Z,16.08
2022-10-28T18:26:44.117Z,15.68
2022-10-28T18:29:14.191Z,12.20
2022-10-28T18:31:45.066Z,15.30
2022-10-28T18:34:14.326Z,13.88
2022-10-28T18:36:43.688Z,14.73
2022-10-28T18:39:12.835Z,16.77
2022-10-28T18:41:45.619Z,16.23
2022-10-28T18:44:20.910Z,16.50
2022-10-28T18:46:52.208Z,16.52
2022-10-28T18:49:21.381Z,24.25
2022-10-28T18:51:50.520Z,15.20
2022-10-28T18:54:19.731Z,19.77
2022-10-28T18:56:49.270Z,13.00
2022-10-28T18:59:20.528Z,13.23
2022-10-28T19:01:49.679Z,12.05
2022-10-28T19:04:19.291Z,15.80
2022-10-28T19:06:48.540Z,11.70
2022-10-28T19:09:17.739Z,13.82
2022-10-28T19:11:46.875Z,15.35
2022-10-28T19:14:16.104Z,15.18
2022-10-28T19:16:45.393Z,15.38
2022-10-28T19:19:14.471Z,15.25
2022-10-28T19:21:43.726Z,11.48
2022-10-28T19:24:12.937Z,18.15
2022-10-28T19:26:42.084Z,16.25
2022-10-28T19:29:12.958Z,13.95
2022-10-28T19:31:42.868Z,14.60
2022-10-28T19:34:12.096Z,18.25
2022-10-28T19:36:41.346Z,23.90
2022-10-28T19:39:10.602Z,14.38
2022-10-28T19:41:39.783Z,11.40
2022-10-28T19:44:09.523Z,16.10
2022-10-28T19:46:38.844Z,13.27
2022-10-28T19:49:08.994Z,17.13
2022-10-28T19:51:42.234Z,15.98
2022-10-28T19:54:16.726Z,14.52
2022-10-28T19:56:48.400Z,13.70
2022-10-28T19:59:17.905Z,12.20
2022-10-28T20:01:47.177Z,18.27
2022-10-28T20:04:18.440Z,13.18
2022-10-28T20:06:47.869Z,13.35
2022-10-28T20:09:16.935Z,14.77
2022-10-28T20:11:46.234Z,12.73
2022-10-28T20:14:15.387Z,17.83
2022-10-28T20:16:46.963Z,18.90
2022-10-28T20:19:16.086Z,12.80
2022-10-28T20:21:46.026Z,11.10
2022-10-28T20:24:15.172Z,14.05
2022-10-28T20:26:44.247Z,10.20
2022-10-28T20:29:13.312Z,19.52
2022-10-28T20:31:42.451Z,16.13
2022-10-28T20:34:11.524Z,19.17
2022-10-28T20:36:47.849Z,22.88
2022-10-28T20:39:23.888Z,21.58
2022-10-28T20:41:53.198Z,12.55
2022-10-28T20:44:22.532Z,16.35
2022-10-28T20:46:51.884Z,15.60
2022-10-28T20:49:21.012Z,14.68
2022-10-28T20:51:50.997Z,15.27
2022-10-28T20:54:20.331Z,11.27
2022-10-28T20:56:49.447Z,10.55
2022-10-28T20:59:18.548Z,16.10
2022-10-28T21:01:47.867Z,18.25
2022-10-28T21:04:17.435Z,11.23
2022-10-28T21:06:46.996Z,22.42
2022-10-28T21:09:16.097Z,11.15
2022-10-28T21:11:47.254Z,12.63
2022-10-28T21:14:16.323Z,18.60
2022-10-28T21:16:45.445Z,16.38
2022-10-28T21:19:14.599Z,13.32
2022-10-28T21:21:43.760Z,20.40
2022-10-28T21:24:13.051Z,18.98
2022-10-28T21:26:42.093Z,17.80
2022-10-28T21:29:11.197Z,16.27
2022-10-28T21:31:40.372Z,11.93
2022-10-28T21:34:09.451Z,17.67
2022-10-28T21:36:38.638Z,21.67
2022-10-28T21:39:07.720Z,15.57
2022-10-28T21:41:36.767Z,15.27
2022-10-28T21:44:07.303Z,12.57
2022-10-28T21:46:36.401Z,20.65
2022-10-28T21:49:05.491Z,23.83
2022-10-28T21:51:34.583Z,20.13
2022-10-28T21:54:03.740Z,29.02
2022-10-28T21:56:32.876Z,20.40
2022-10-28T21:59:03.102Z,41.70
2022-10-28T22:01:33.949Z,20.40
2022-10-28T22:04:04.012Z,12.32
2022-10-28T22:06:34.405Z,16.42
2022-10-28T22:09:04.579Z,15.75
2022-10-28T22:11:37.087Z,19.90
2022-10-28T22:14:06.781Z,20.30
2022-10-28T22:16:37.202Z,19.27
2022-10-28T22:19:10.132Z,21.65
2022-10-28T22:21:40.313Z,17.95
2022-10-28T22:24:10.139Z,25.10
2022-10-28T22:26:39.465Z,16.45
2022-10-28T22:29:08.642Z,21.88
2022-10-28T22:31:37.979Z,16.38
2022-10-28T22:34:07.236Z,17.58
2022-10-28T22:36:36.449Z,18.77
2022-10-28T22:39:05.801Z,21.90
2022-10-28T22:41:35.791Z,18.42
2022-10-28T22:44:05.790Z,23.10
2022-10-28T22:46:37.656Z,19.30
2022-10-28T22:49:06.764Z,14.95
2022-10-28T22:51:35.939Z,30.10
2022-10-28T22:54:05.415Z,27.83
2022-10-28T22:56:34.705Z,16.27
2022-10-28T22:59:07.054Z,22.08
2022-10-28T23:01:36.374Z,21.58
2022-10-28T23:04:05.862Z,20.15
2022-10-28T23:06:35.555Z,23.35
2022-10-28T23:09:05.322Z,22.75
2022-10-28T23:11:34.548Z,19.63
2022-10-28T23:14:03.763Z,25.02
2022-10-28T23:16:33.113Z,24.33
2022-10-28T23:19:06.192Z,20.63
2022-10-28T23:21:35.531Z,21.75
2022-10-28T23:24:04.894Z,21.98
2022-10-28T23:26:34.071Z,39.03
2022-10-28T23:29:03.182Z,27.90
2022-10-28T23:31:32.407Z,21.73
2022-10-28T23:34:02.478Z,20.55
2022-10-28T23:36:31.723Z,28.13
2022-10-28T23:39:01.067Z,25.45
2022-10-28T23:41:30.307Z,22.15
2022-10-28T23:44:01.645Z,28.33
2022-10-28T23:46:36.453Z,24.80
2022-10-28T23:49:06.824Z,26.63
2022-10-28T23:51:36.123Z,30.95
2022-10-28T23:54:06.151Z,23.35
2022-10-28T23:56:35.421Z,26.30
2022-10-28T23:59:04.666Z,27.98
